createdAt,value
2023-03-25T00:00:04.000Z,96235
2023-03-25T00:05:04.000Z,96262
2023-03-25T00:10:04.000Z,96274
2023-03-25T00:15:04.000Z,96276
2023-03-25T00:20:04.000Z,96258
2023-03-25T00:25:04.000Z,96259
2023-03-25T00:30:04.000Z,96256
2023-03-25T00:35:04.000Z,96264
2023-03-25T00:40:04.000Z,96247
2023-03-25T00:45:04.000Z,96236
2023-03-25T01:15:04.000Z,96260
2023-03-25T01:20:04.000Z,96265
2023-03-25T01:25:04.000Z,96276
2023-03-25T01:30:04.000Z,96290
2023-03-25T01:35:04.000Z,96293
2023-03-25T01:40:04.000Z,96277
2023-03-25T01:45:04.000Z,96272
2023-03-25T01:50:04.000Z,96271
2023-03-25T01:55:04.000Z,96260
2023-03-25T02:00:04.000Z,96250
2023-03-25T02:05:04.000Z,96237
2023-03-25T02:10:04.000Z,96242
2023-03-25T02:15:04.000Z,96238
2023-03-25T02:20:04.000Z,96247
2023-03-25T02:25:04.000Z,96244
2023-03-25T02:30:04.000Z,96262
2023-03-25T02:35:04.000Z,96264
2023-03-25T02:40:04.000Z,96289
2023-03-25T02:45:04.000Z,96299
2023-03-25T02:50:04.000Z,96326
2023-03-25T02:55:04.000Z,96324
2023-03-25T02:59:49.000Z,96309
2023-03-25T03:05:04.000Z,96325
2023-03-25T03:10:04.000Z,96349
2023-03-25T03:15:04.000Z,96352
2023-03-25T03:20:04.000Z,96350
2023-03-25T03:25:04.000Z,96356
2023-03-25T03:30:04.000Z,96333
2023-03-25T03:35:04.000Z,96333
2023-03-25T03:40:04.000Z,96327
2023-03-25T03:45:04.000Z,96325
2023-03-25T03:50:04.000Z,96312
2023-03-25T03:55:04.000Z,96302
2023-03-25T04:00:04.000Z,96290
2023-03-25T04:05:04.000Z,96292
2023-03-25T04:10:04.000Z,96292
2023-03-25T04:15:04.000Z,96286
2023-03-25T04:20:04.000Z,96301
2023-03-25T04:25:04.000Z,96322
2023-03-25T04:30:04.000Z,96323
2023-03-25T04:35:04.000Z,96305
2023-03-25T04:40:04.000Z,96310
2023-03-25T04:45:04.000Z,96325
2023-03-25T04:50:04.000Z,96330
2023-03-25T04:55:04.000Z,96321
2023-03-25T05:00:04.000Z,96319
2023-03-25T05:05:04.000Z,96310
2023-03-25T05:10:04.000Z,96305
2023-03-25T05:15:04.000Z,96312
2023-03-25T05:20:04.000Z,96301
2023-03-25T05:25:04.000Z,96304
2023-03-25T05:30:04.000Z,96307
2023-03-25T05:35:04.000Z,96299
2023-03-25T05:40:04.000Z,96312
2023-03-25T05:45:04.000Z,96331
2023-03-25T05:50:04.000Z,96322
2023-03-25T05:55:04.000Z,96316
2023-03-25T06:00:04.000Z,96308
2023-03-25T06:05:04.000Z,96322
2023-03-25T06:10:04.000Z,96333
2023-03-25T06:15:04.000Z,96314
2023-03-25T06:20:04.000Z,96312
2023-03-25T06:25:04.000Z,96309
2023-03-25T06:30:04.000Z,96313
2023-03-25T06:35:04.000Z,96308
2023-03-25T06:40:04.000Z,96315
2023-03-25T06:45:04.000Z,96306
2023-03-25T06:50:04.000Z,96304
2023-03-25T06:55:04.000Z,96303
2023-03-25T07:00:04.000Z,96312
2023-03-25T07:05:04.000Z,96314
2023-03-25T07:10:04.000Z,96316
2023-03-25T07:15:04.000Z,96321
2023-03-25T07:20:04.000Z,96323
2023-03-25T07:25:04.000Z,96317
2023-03-25T07:30:04.000Z,96315
2023-03-25T07:35:04.000Z,96326
2023-03-25T07:40:04.000Z,96309
2023-03-25T07:45:04.000Z,96306
2023-03-25T07:50:04.000Z,96307
2023-03-25T07:55:04.000Z,96296
2023-03-25T08:00:04.000Z,96304
2023-03-25T08:05:04.000Z,96302
2023-03-25T08:10:04.000Z,96301
2023-03-25T08:15:04.000Z,96303
2023-03-25T08:20:04.000Z,96309
2023-03-25T08:25:04.000Z,96300
2023-03-25T08:30:04.000Z,96304
2023-03-25T08:35:04.000Z,96296
2023-03-25T08:40:04.000Z,96309
2023-03-25T08:45:04.000Z,96319
2023-03-25T08:50:04.000Z,96316
2023-03-25T08:55:04.000Z,96316
2023-03-25T09:00:04.000Z,96315
2023-03-25T09:05:04.000Z,96321
2023-03-25T09:10:04.000Z,96320
2023-03-25T09:15:04.000Z,96314
2023-03-25T09:20:04.000Z,96325
2023-03-25T09:25:04.000Z,96334
2023-03-25T09:30:04.000Z,96355
2023-03-25T09:35:04.000Z,96358
2023-03-25T09:40:04.000Z,96354
2023-03-25T09:45:04.000Z,96357
2023-03-25T09:50:04.000Z,96363
2023-03-25T09:55:04.000Z,96366
2023-03-25T10:00:04.000Z,96361
2023-03-25T10:05:04.000Z,96366
2023-03-25T10:10:04.000Z,96360
2023-03-25T10:15:04.000Z,96364
2023-03-25T10:20:04.000Z,96348
2023-03-25T10:25:04.000Z,96346
2023-03-25T10:30:04.000Z,96358
2023-03-25T10:35:04.000Z,96353
2023-03-25T10:40:04.000Z,96335
2023-03-25T10:45:04.000Z,96344
2023-03-25T10:50:04.000Z,96346
2023-03-25T10:55:04.000Z,96345
2023-03-25T11:00:04.000Z,96346
2023-03-25T11:05:04.000Z,96335
2023-03-25T11:10:04.000Z,96335
2023-03-25T11:15:04.000Z,96323
2023-03-25T11:20:04.000Z,96329
2023-03-25T11:25:04.000Z,96338
2023-03-25T11:30:04.000Z,96336
2023-03-25T11:35:04.000Z,96335
2023-03-25T11:40:04.000Z,96331
2023-03-25T11:45:04.000Z,96335
2023-03-25T11:50:04.000Z,96332
2023-03-25T11:55:04.000Z,96339
2023-03-25T12:00:04.000Z,96345
2023-03-25T12:05:04.000Z,96345
2023-03-25T12:10:04.000Z,96349
2023-03-25T12:15:04.000Z,96342
2023-03-25T12:20:04.000Z,96338
2023-03-25T12:25:04.000Z,96336
2023-03-25T12:30:04.000Z,96347
2023-03-25T12:35:04.000Z,96335
2023-03-25T12:40:04.000Z,96331
2023-03-25T12:45:04.000Z,96336
2023-03-25T12:50:04.000Z,96328
2023-03-25T12:55:04.000Z,96325
2023-03-25T13:00:04.000Z,96328
2023-03-25T13:05:04.000Z,96341
2023-03-25T13:10:04.000Z,96362
2023-03-25T13:15:04.000Z,96336
2023-03-25T13:20:04.000Z,96326
2023-03-25T13:25:04.000Z,96327
2023-03-25T13:30:04.000Z,96322
2023-03-25T13:35:04.000Z,96320
2023-03-25T13:40:04.000Z,96316
2023-03-25T13:45:04.000Z,96308
2023-03-25T13:50:04.000Z,96318
2023-03-25T13:55:04.000Z,96298
2023-03-25T14:00:04.000Z,96316
2023-03-25T14:05:04.000Z,96310
2023-03-25T14:10:04.000Z,96293
2023-03-25T14:15:04.000Z,96302
2023-03-25T14:20:04.000Z,96304
2023-03-25T14:25:04.000Z,96305
2023-03-25T14:30:04.000Z,96295
2023-03-25T14:35:04.000Z,96285
2023-03-25T14:40:05.000Z,96284
2023-03-25T14:45:05.000Z,96286
2023-03-25T14:50:05.000Z,96270
2023-03-25T14:55:05.000Z,96273
2023-03-25T15:00:05.000Z,96274
2023-03-25T15:05:05.000Z,96263
2023-03-25T15:10:05.000Z,96268
2023-03-25T15:15:05.000Z,96261
2023-03-25T15:20:05.000Z,96271
2023-03-25T15:25:05.000Z,96286
2023-03-25T15:30:05.000Z,96284
2023-03-25T15:35:05.000Z,96290
2023-03-25T15:40:05.000Z,96308
2023-03-25T15:45:05.000Z,96328
2023-03-25T15:50:05.000Z,96298
2023-03-25T15:55:05.000Z,96303
2023-03-25T16:00:05.000Z,96297
2023-03-25T16:05:05.000Z,96297
2023-03-25T16:10:05.000Z,96291
2023-03-25T16:15:05.000Z,96282
2023-03-25T16:20:05.000Z,96283
2023-03-25T16:25:05.000Z,96279
2023-03-25T16:30:05.000Z,96275
2023-03-25T16:35:05.000Z,96271
2023-03-25T16:40:05.000Z,96266
2023-03-25T16:45:05.000Z,96267
2023-03-25T16:50:05.000Z,96262
2023-03-25T16:55:05.000Z,96278
2023-03-25T17:00:05.000Z,96261
2023-03-25T17:05:05.000Z,96250
2023-03-25T17:10:05.000Z,96260
2023-03-25T17:15:05.000Z,96245
2023-03-25T17:20:05.000Z,96254
2023-03-25T17:25:05.000Z,96273
2023-03-25T17:30:05.000Z,96268
2023-03-25T17:35:05.000Z,96257
2023-03-25T17:40:05.000Z,96269
2023-03-25T17:45:05.000Z,96272
2023-03-25T17:50:05.000Z,96266
2023-03-25T17:55:05.000Z,96273
2023-03-25T18:00:05.000Z,96266
2023-03-25T18:05:05.000Z,96271
2023-03-25T18:10:05.000Z,96277
2023-03-25T18:15:05.000Z,96272
2023-03-25T18:20:05.000Z,96276
2023-03-25T18:25:05.000Z,96273
2023-03-25T18:30:05.000Z,96283
2023-03-25T18:35:05.000Z,96292
2023-03-25T18:40:05.000Z,96300
2023-03-25T18:45:05.000Z,96290
2023-03-25T18:50:05.000Z,96296
2023-03-25T18:55:05.000Z,96298
2023-03-25T19:00:05.000Z,96305
2023-03-25T19:05:05.000Z,96297
2023-03-25T19:10:05.000Z,96302
2023-03-25T19:15:05.000Z,96302
2023-03-25T19:20:05.000Z,96295
2023-03-25T19:25:05.000Z,96285
2023-03-25T19:30:05.000Z,96286
2023-03-25T19:35:05.000Z,96284
2023-03-25T19:40:05.000Z,96288
2023-03-25T19:45:05.000Z,96298
2023-03-25T19:50:05.000Z,96302
2023-03-25T19:55:05.000Z,96296
2023-03-25T20:00:05.000Z,96287
2023-03-25T20:05:05.000Z,96287
2023-03-25T20:10:05.000Z,96286
2023-03-25T20:15:05.000Z,96292
2023-03-25T20:20:05.000Z,96286
2023-03-25T20:25:05.000Z,96273
2023-03-25T20:30:05.000Z,96271
2023-03-25T20:35:05.000Z,96265
2023-03-25T20:40:05.000Z,96279
2023-03-25T20:45:05.000Z,96272
2023-03-25T20:50:05.000Z,96267
2023-03-25T20:55:05.000Z,96265
2023-03-25T21:00:05.000Z,96268
2023-03-25T21:05:05.000Z,96261
2023-03-25T21:10:05.000Z,96246
2023-03-25T21:15:05.000Z,96248
2023-03-25T21:20:05.000Z,96255
2023-03-25T21:25:05.000Z,96252
2023-03-25T21:30:05.000Z,96256
2023-03-25T21:35:05.000Z,96245
2023-03-25T21:40:05.000Z,96247
2023-03-25T21:45:05.000Z,96251
2023-03-25T21:50:05.000Z,96250
2023-03-25T21:55:05.000Z,96237
2023-03-25T22:00:05.000Z,96232
2023-03-25T22:05:05.000Z,96236
2023-03-25T22:10:05.000Z,96229
2023-03-25T22:15:05.000Z,96223
2023-03-25T22:20:05.000Z,96202
2023-03-25T22:25:05.000Z,96218
2023-03-25T22:30:05.000Z,96208
2023-03-25T22:35:05.000Z,96217
2023-03-25T22:40:05.000Z,96222
2023-03-25T22:45:05.000Z,96224
2023-03-25T22:50:05.000Z,96211
2023-03-25T22:55:05.000Z,96202
2023-03-25T23:00:05.000Z,96203
2023-03-25T23:05:05.000Z,96210
2023-03-25T23:10:05.000Z,96194
2023-03-25T23:15:05.000Z,96180
2023-03-25T23:20:05.000Z,96173
2023-03-25T23:25:05.000Z,96154
2023-03-25T23:30:05.000Z,96144
2023-03-25T23:35:05.000Z,96132
2023-03-25T23:40:05.000Z,96134
2023-03-25T23:45:05.000Z,96132
2023-03-25T23:50:05.000Z,96134
2023-03-25T23:55:05.000Z,96134
